CAMANCHE RESERVOIR (CMN)

Elevation: 236' · MOKELUMNE R basin · Operator: East Bay Municipal Utility District

Provisional data, subject to change.
Query executed Wednesday at 12:01:17   clock

Select a sensor type for a plot of data.
Note: Reservoir Flows are daily averages.

Earlier

Date RES ELE    STORAGE    RES CHG    TOC STO    ABV TOC    OUTFLOW    INFLOW   
 FEET   AF   AF   AF   AF   CFS   CFS  
01/11/2016 175.68 93640 -339 417100 -323460 180 11
01/12/2016 175.59 93350 -333 417100 -323750 180 11
01/13/2016 175.59 93040 -332 417100 -324060 180 11
01/14/2016 175.39 92730 -287 417100 -324370 181 11
01/15/2016 175.30 92450 -285 417100 -- 180 11
01/16/2016 175.21 92180 -277 415790 -- 180 11
01/17/2016 175.13 91930 -209 414500 -- 180 11
01/18/2016 175.27 92360 387 412570 -320210 180 11
01/19/2016 175.34 92580 241 410770 -318190 180 11
01/20/2016 175.28 92390 -173 408880 -316490 180 11
01/21/2016 175.21 92180 -218 407300 -315120 180 11
01/22/2016 175.19 92110 -69 405810 -- 180 11
01/23/2016 175.17 92050 -65 403540 -- 180 11
01/24/2016 175.09 91810 -235 403540 -311730 180 11
01/25/2016 175.00 91530 -269 401700 -310170 180 11
01/26/2016 174.91 91250 -281 400540 -309290 180 11
01/27/2016 174.81 90950 -314 399840 -308890 180 11
01/28/2016 174.72 90670 -- 399180 -308510 180 0
01/29/2016 174.65 90460 -- 398430 -- 180 0
01/30/2016 174.62 90370 -- 394680 -- 180 0
01/31/2016 174.53 90100 -- 392020 -301920 180 0
02/01/2016 174.62 90370 24719 390920 -300550 167 300
02/02/2016 174.70 90610 24449 390230 -299620 161 284
02/03/2016 174.77 90830 24209 389850 -299020 161 275
02/04/2016 174.84 91040 23989 389420 -298380 161 275
02/05/2016 174.91 91250 231 389120 -- 161 266
02/06/2016 174.98 91470 218 388820 -- 161 275
02/07/2016 174.91 91250 -258 387970 -296720 161 11
02/08/2016 175.12 91900 656 388130 -296230 161 528
02/09/2016 175.36 92640 720 388400 -295780 162 530
02/10/2016 -- -- -- -- -- -- --

Later | Latest

Warning! This data is preliminary and subject to revision.

Show CMN Map | Plot CMN Data | 1 Month CMN Data | Real-Time CMN Data | CMN Info